createdAt,value
2022-10-16T00:01:45.879Z,5.12
2022-10-16T00:04:18.961Z,4.80
2022-10-16T00:06:52.241Z,5.97
2022-10-16T00:09:25.599Z,4.72
2022-10-16T00:11:59.046Z,4.45
2022-10-16T00:14:32.521Z,4.70
2022-10-16T00:17:06.025Z,5.05
2022-10-16T00:19:39.381Z,5.10
2022-10-16T00:22:31.446Z,5.22
2022-10-16T00:25:04.921Z,4.67
2022-10-16T00:27:38.010Z,5.37
2022-10-16T00:30:12.921Z,6.80
2022-10-16T00:32:46.831Z,5.25
2022-10-16T00:35:21.313Z,5.17
2022-10-16T00:37:54.681Z,4.83
2022-10-16T00:40:29.353Z,5.58
2022-10-16T00:43:02.812Z,4.92
2022-10-16T00:45:36.508Z,5.58
2022-10-16T00:48:14.544Z,5.42
2022-10-16T00:50:47.892Z,5.10
2022-10-16T00:53:21.629Z,4.95
2022-10-16T00:55:56.425Z,5.62
2022-10-16T00:58:29.758Z,4.40
2022-10-16T01:01:03.252Z,5.83
2022-10-16T01:03:38.744Z,4.58
2022-10-16T01:06:21.374Z,4.78
2022-10-16T01:09:03.376Z,4.95
2022-10-16T01:11:40.942Z,4.90
2022-10-16T01:14:18.218Z,4.53
2022-10-16T01:16:55.945Z,5.10
2022-10-16T01:19:37.372Z,5.75
2022-10-16T01:22:12.276Z,5.62
2022-10-16T01:27:26.018Z,4.40
2022-10-16T01:30:02.284Z,5.62
2022-10-16T01:32:38.737Z,4.60
2022-10-16T01:35:15.961Z,5.50
2022-10-16T01:37:52.528Z,6.08
2022-10-16T01:40:28.664Z,4.45
2022-10-16T01:43:04.956Z,5.08
2022-10-16T01:45:39.479Z,5.12
2022-10-16T01:51:00.302Z,5.67
2022-10-16T01:53:34.118Z,4.67
2022-10-16T01:56:10.207Z,5.15
2022-10-16T01:58:46.841Z,5.00
2022-10-16T02:01:23.051Z,5.20
2022-10-16T02:03:59.817Z,5.65
2022-10-16T02:06:33.026Z,5.37
2022-10-16T02:09:06.747Z,5.92
2022-10-16T02:11:41.299Z,5.30
2022-10-16T02:14:14.901Z,7.22
2022-10-16T02:16:49.334Z,7.28
2022-10-16T02:19:24.339Z,6.85
2022-10-16T02:22:00.366Z,8.60
2022-10-16T02:24:36.145Z,5.80
2022-10-16T02:27:13.693Z,5.95
2022-10-16T02:29:51.458Z,7.17
2022-10-16T02:32:26.964Z,6.22
2022-10-16T02:35:02.330Z,4.72
2022-10-16T02:37:36.628Z,5.37
2022-10-16T02:40:12.694Z,5.97
2022-10-16T02:42:45.885Z,5.17
2022-10-16T02:45:19.114Z,5.70
2022-10-16T02:47:52.653Z,5.25
2022-10-16T02:50:26.363Z,4.87
2022-10-16T02:52:59.756Z,5.05
2022-10-16T02:55:33.561Z,4.55
2022-10-16T02:58:07.108Z,5.62
2022-10-16T03:00:40.549Z,5.33
2022-10-16T03:03:13.951Z,4.70
2022-10-16T03:05:48.118Z,5.72
2022-10-16T03:08:23.233Z,5.45
2022-10-16T03:10:56.454Z,5.83
2022-10-16T03:13:29.737Z,5.97
2022-10-16T03:16:02.876Z,5.62
2022-10-16T03:18:36.735Z,5.78
2022-10-16T03:21:10.787Z,5.17
2022-10-16T03:23:44.307Z,5.60
2022-10-16T03:26:17.783Z,4.70
2022-10-16T03:28:51.151Z,5.25
2022-10-16T03:31:24.478Z,5.50
2022-10-16T03:33:58.089Z,5.30
2022-10-16T03:36:32.010Z,4.90
2022-10-16T03:39:05.919Z,4.95
2022-10-16T03:41:39.619Z,5.22
2022-10-16T03:44:13.432Z,5.08
2022-10-16T03:46:46.945Z,4.90
2022-10-16T03:49:20.050Z,4.72
2022-10-16T03:51:53.318Z,5.47
2022-10-16T03:54:26.942Z,5.22
2022-10-16T03:57:00.259Z,5.25
2022-10-16T03:59:33.642Z,6.45
2022-10-16T04:02:07.145Z,7.50
2022-10-16T04:04:40.658Z,7.40
2022-10-16T04:07:14.369Z,7.95
2022-10-16T04:09:47.908Z,9.95
2022-10-16T04:12:21.134Z,10.60
2022-10-16T04:14:54.836Z,8.95
2022-10-16T04:17:28.751Z,9.43
2022-10-16T04:20:02.239Z,8.93
2022-10-16T04:22:35.724Z,11.10
2022-10-16T04:25:10.966Z,8.50
2022-10-16T04:27:46.121Z,6.05
2022-10-16T04:30:19.942Z,5.08
2022-10-16T04:32:54.139Z,5.15
2022-10-16T04:35:27.677Z,6.10
2022-10-16T04:38:02.412Z,6.95
2022-10-16T04:40:37.261Z,7.03
2022-10-16T04:43:10.922Z,6.22
2022-10-16T04:45:44.851Z,7.67
2022-10-16T04:48:18.578Z,6.75
2022-10-16T04:50:55.074Z,6.40
2022-10-16T04:53:27.682Z,6.90
2022-10-16T04:56:01.154Z,7.08
2022-10-16T04:58:34.775Z,6.30
2022-10-16T05:01:08.625Z,5.85
2022-10-16T05:03:42.375Z,6.60
2022-10-16T05:06:15.890Z,7.03
2022-10-16T05:08:49.648Z,6.30
2022-10-16T05:11:22.943Z,7.03
2022-10-16T05:13:56.443Z,8.15
2022-10-16T05:16:31.238Z,7.60
2022-10-16T05:19:26.245Z,8.68
2022-10-16T05:21:40.947Z,8.78
2022-10-16T05:24:15.266Z,9.08
2022-10-16T05:26:48.891Z,9.05
2022-10-16T05:29:22.900Z,7.20
2022-10-16T05:31:56.538Z,9.48
2022-10-16T05:34:29.696Z,8.33
2022-10-16T05:37:02.779Z,7.97
2022-10-16T05:39:35.923Z,8.78
2022-10-16T05:42:09.009Z,7.58
2022-10-16T05:44:42.078Z,8.15
2022-10-16T05:47:16.039Z,7.87
2022-10-16T05:49:49.094Z,7.58
2022-10-16T05:52:21.987Z,7.50
2022-10-16T05:54:55.043Z,8.63
2022-10-16T05:57:28.276Z,7.50
2022-10-16T06:00:01.485Z,6.20
2022-10-16T06:02:34.475Z,5.95
2022-10-16T06:05:09.122Z,7.05
2022-10-16T06:07:42.187Z,7.17
2022-10-16T06:10:15.357Z,7.33
2022-10-16T06:12:48.446Z,7.92
2022-10-16T06:15:21.314Z,6.75
2022-10-16T06:17:54.134Z,6.90
2022-10-16T06:20:27.275Z,7.80
2022-10-16T06:23:00.785Z,7.28
2022-10-16T06:25:33.708Z,7.35
2022-10-16T06:28:06.907Z,8.40
2022-10-16T06:30:40.026Z,8.70
2022-10-16T06:33:13.229Z,7.53
2022-10-16T06:35:46.233Z,6.87
2022-10-16T06:38:19.168Z,7.40
2022-10-16T06:40:52.389Z,7.33
2022-10-16T06:43:25.621Z,7.62
2022-10-16T06:46:00.449Z,6.83
2022-10-16T06:48:33.649Z,6.75
2022-10-16T06:51:09.224Z,6.87
2022-10-16T06:54:01.471Z,8.35
2022-10-16T06:56:20.319Z,7.47
2022-10-16T06:58:54.502Z,6.75
2022-10-16T07:01:28.511Z,6.67
2022-10-16T07:04:02.997Z,5.72
2022-10-16T07:06:37.031Z,6.00
2022-10-16T07:09:12.077Z,6.05
2022-10-16T07:11:45.489Z,5.95
2022-10-16T07:14:22.002Z,6.15
2022-10-16T07:16:55.054Z,5.80
2022-10-16T07:19:31.869Z,6.30
2022-10-16T07:22:04.085Z,7.20
2022-10-16T07:24:37.172Z,5.22
2022-10-16T07:27:10.039Z,6.15
2022-10-16T07:29:43.605Z,6.30
2022-10-16T07:32:16.470Z,5.85
2022-10-16T07:34:49.517Z,4.65
2022-10-16T07:37:22.340Z,6.80
2022-10-16T07:39:55.518Z,9.18
2022-10-16T07:42:29.431Z,6.45
2022-10-16T07:45:03.127Z,6.05
2022-10-16T07:47:36.537Z,6.58
2022-10-16T07:50:11.236Z,5.10
2022-10-16T07:52:44.855Z,5.17
2022-10-16T07:55:18.611Z,4.50
2022-10-16T07:57:52.413Z,4.92
2022-10-16T08:00:26.053Z,4.35
2022-10-16T08:03:01.260Z,5.17
2022-10-16T08:05:36.006Z,4.25
2022-10-16T08:08:10.921Z,5.05
2022-10-16T08:10:44.868Z,4.83
2022-10-16T08:13:18.364Z,5.47
2022-10-16T08:15:52.237Z,4.35
2022-10-16T08:18:25.982Z,5.47
2022-10-16T08:21:02.527Z,4.50
2022-10-16T08:23:36.458Z,4.87
2022-10-16T08:26:10.750Z,5.15
2022-10-16T08:28:44.422Z,4.80
2022-10-16T08:31:18.437Z,4.85
2022-10-16T08:33:52.407Z,6.50
2022-10-16T08:36:25.688Z,4.85
2022-10-16T08:38:58.821Z,6.58
2022-10-16T08:41:40.055Z,4.37
2022-10-16T08:44:35.726Z,4.67
2022-10-16T08:47:13.937Z,5.15
2022-10-16T08:49:51.234Z,5.33
2022-10-16T08:52:25.351Z,5.00
2022-10-16T08:54:59.523Z,4.12
2022-10-16T08:57:34.760Z,5.30
2022-10-16T09:00:15.684Z,5.30
2022-10-16T09:02:53.497Z,5.08
2022-10-16T09:05:50.679Z,4.40
2022-10-16T09:11:02.035Z,3.72
2022-10-16T09:16:16.629Z,4.70
2022-10-16T09:18:53.197Z,4.60
2022-10-16T09:21:29.399Z,4.45
2022-10-16T09:24:05.578Z,3.85
2022-10-16T09:26:39.078Z,4.17
2022-10-16T09:29:15.190Z,4.37
2022-10-16T09:31:48.908Z,4.70
2022-10-16T09:34:26.071Z,3.40
2022-10-16T09:37:02.007Z,3.90
2022-10-16T09:39:47.330Z,3.20
2022-10-16T09:42:24.138Z,3.27
2022-10-16T09:44:57.560Z,2.97
2022-10-16T09:47:33.570Z,3.90
2022-10-16T09:50:17.670Z,3.55
2022-10-16T09:52:51.215Z,3.27
2022-10-16T09:55:24.692Z,3.10
2022-10-16T09:57:58.745Z,3.22
2022-10-16T10:00:33.318Z,3.47
2022-10-16T10:03:09.879Z,2.83
2022-10-16T10:05:43.803Z,3.45
2022-10-16T10:08:20.696Z,3.35
2022-10-16T10:10:55.928Z,2.80
2022-10-16T10:13:29.491Z,2.80
2022-10-16T10:16:03.715Z,2.50
2022-10-16T10:18:36.844Z,2.95
2022-10-16T10:21:19.482Z,2.37
2022-10-16T10:24:00.868Z,3.20
2022-10-16T10:26:39.888Z,2.35
2022-10-16T10:29:15.765Z,2.58
2022-10-16T10:31:53.077Z,3.40
2022-10-16T10:37:05.722Z,2.98
2022-10-16T10:39:42.175Z,2.37
2022-10-16T10:42:22.825Z,3.35
2022-10-16T10:45:02.590Z,2.85
2022-10-16T10:47:41.084Z,3.15
2022-10-16T10:50:19.006Z,2.83
2022-10-16T10:52:57.984Z,3.72
2022-10-16T10:55:36.687Z,3.22
2022-10-16T10:58:36.886Z,2.92
2022-10-16T11:01:14.652Z,3.05
2022-10-16T11:09:04.486Z,3.45
2022-10-16T11:11:43.547Z,2.57
2022-10-16T11:14:20.803Z,2.50
2022-10-16T11:17:06.196Z,3.10
2022-10-16T11:19:43.320Z,3.35
2022-10-16T11:22:23.431Z,2.90
2022-10-16T11:27:39.892Z,2.45
2022-10-16T11:30:27.199Z,3.35
2022-10-16T11:33:14.060Z,2.52
2022-10-16T11:35:50.820Z,3.22
2022-10-16T11:38:34.845Z,2.47
2022-10-16T11:41:16.547Z,3.80
2022-10-16T11:43:53.601Z,3.40
2022-10-16T11:46:29.636Z,3.50
2022-10-16T11:49:08.357Z,3.47
2022-10-16T11:51:45.833Z,3.35
2022-10-16T11:54:23.894Z,2.80
2022-10-16T11:57:01.183Z,3.60
2022-10-16T11:59:37.532Z,3.87
2022-10-16T12:02:21.949Z,4.00
2022-10-16T12:05:00.110Z,4.10
2022-10-16T12:07:38.910Z,3.80
2022-10-16T12:10:27.435Z,3.70
2022-10-16T12:13:02.131Z,3.72
2022-10-16T12:15:58.278Z,2.87
2022-10-16T12:18:26.145Z,3.15
2022-10-16T12:21:02.432Z,3.50
2022-10-16T12:23:40.302Z,3.15
2022-10-16T12:32:49.510Z,2.65
2022-10-16T12:35:24.261Z,3.08
2022-10-16T12:38:02.595Z,3.10
2022-10-16T12:40:40.661Z,3.05
2022-10-16T12:43:45.281Z,3.55
2022-10-16T12:46:57.867Z,2.77
2022-10-16T12:52:36.807Z,2.87
2022-10-16T12:55:21.931Z,3.45
2022-10-16T12:58:13.978Z,2.75
2022-10-16T13:00:50.662Z,3.08
2022-10-16T13:03:57.670Z,3.40
2022-10-16T13:06:38.058Z,3.90
2022-10-16T13:09:22.209Z,3.40
2022-10-16T13:12:12.055Z,3.00
2022-10-16T13:15:14.216Z,3.15
2022-10-16T13:17:51.099Z,4.05
2022-10-16T13:20:28.448Z,4.10
2022-10-16T13:25:59.230Z,3.73
2022-10-16T13:28:39.012Z,4.20
2022-10-16T13:31:19.479Z,3.90
2022-10-16T13:34:00.665Z,4.60
2022-10-16T13:36:40.729Z,4.40
2022-10-16T13:39:20.447Z,3.80
2022-10-16T13:42:09.179Z,4.55
2022-10-16T13:44:46.105Z,6.20
2022-10-16T13:47:39.302Z,5.45
2022-10-16T13:50:21.700Z,5.50
2022-10-16T13:53:05.322Z,4.08
2022-10-16T13:55:39.318Z,4.40
2022-10-16T13:58:20.672Z,4.30
2022-10-16T14:01:06.508Z,3.65
2022-10-16T14:03:43.397Z,4.90
2022-10-16T14:06:23.350Z,3.83
2022-10-16T14:09:01.732Z,4.58
2022-10-16T14:11:39.661Z,4.80
2022-10-16T14:14:24.000Z,5.03
2022-10-16T14:16:57.221Z,5.37
2022-10-16T14:19:34.342Z,3.98
2022-10-16T14:22:16.223Z,3.27
2022-10-16T14:24:52.570Z,5.28
2022-10-16T14:27:31.338Z,5.08
2022-10-16T14:30:20.406Z,4.65
2022-10-16T14:33:02.846Z,4.90
2022-10-16T14:35:39.956Z,5.22
2022-10-16T14:38:22.938Z,4.90
2022-10-16T14:40:57.043Z,4.33
2022-10-16T14:43:37.037Z,4.80
2022-10-16T14:46:15.206Z,5.62
2022-10-16T14:48:52.592Z,5.10
2022-10-16T14:51:26.795Z,6.05
2022-10-16T14:54:04.819Z,6.70
2022-10-16T14:59:14.804Z,5.03
2022-10-16T15:01:48.820Z,6.42
2022-10-16T15:04:22.041Z,6.10
2022-10-16T15:06:55.544Z,5.83
2022-10-16T15:09:28.581Z,4.72
2022-10-16T15:12:01.826Z,4.87
2022-10-16T15:14:34.955Z,5.00
2022-10-16T15:17:08.664Z,5.20
2022-10-16T15:19:44.805Z,5.92
2022-10-16T15:22:18.372Z,3.02
2022-10-16T15:24:51.661Z,3.65
2022-10-16T15:30:19.634Z,3.95
2022-10-16T15:32:54.393Z,4.08
2022-10-16T15:35:35.934Z,3.50
2022-10-16T15:38:19.945Z,4.28
2022-10-16T15:40:56.792Z,3.67
2022-10-16T15:43:41.497Z,3.70
2022-10-16T15:46:18.597Z,3.65
2022-10-16T15:48:54.078Z,3.97
2022-10-16T15:51:38.783Z,4.62
2022-10-16T15:54:14.886Z,5.30
2022-10-16T15:56:49.400Z,5.15
2022-10-16T15:59:26.040Z,6.72
2022-10-16T16:02:00.286Z,4.28
2022-10-16T16:04:44.264Z,5.45
2022-10-16T16:07:11.113Z,6.05
2022-10-16T16:09:51.353Z,4.80
2022-10-16T16:12:25.962Z,4.83
2022-10-16T16:15:04.908Z,5.53
2022-10-16T16:17:38.151Z,4.97
2022-10-16T16:20:14.330Z,5.30
2022-10-16T16:22:48.858Z,5.92
2022-10-16T16:25:29.752Z,4.97
2022-10-16T16:28:06.641Z,5.55
2022-10-16T16:30:40.578Z,6.53
2022-10-16T16:33:25.352Z,5.22
2022-10-16T16:36:02.283Z,5.87
2022-10-16T16:38:40.751Z,4.35
2022-10-16T16:41:19.198Z,3.42
2022-10-16T16:43:53.051Z,4.22
2022-10-16T16:49:20.695Z,3.65
2022-10-16T16:52:13.026Z,4.10
2022-10-16T16:54:49.113Z,4.60
2022-10-16T16:57:37.106Z,4.92
2022-10-16T17:00:14.078Z,3.98
2022-10-16T17:02:51.402Z,4.17
2022-10-16T17:05:25.919Z,4.72
2022-10-16T17:08:02.361Z,3.98
2022-10-16T17:10:35.715Z,5.22
2022-10-16T17:13:08.807Z,5.15
2022-10-16T17:15:49.159Z,3.80
2022-10-16T17:18:23.660Z,3.98
2022-10-16T17:20:56.753Z,5.08
2022-10-16T17:23:30.041Z,3.60
2022-10-16T17:26:08.197Z,4.25
2022-10-16T17:28:42.656Z,4.33
2022-10-16T17:31:18.275Z,4.33
2022-10-16T17:33:52.500Z,4.55
2022-10-16T17:36:27.271Z,3.65
2022-10-16T17:39:04.168Z,3.45
2022-10-16T17:41:41.006Z,3.43
2022-10-16T17:44:16.977Z,3.58
2022-10-16T17:46:51.642Z,3.60
2022-10-16T17:49:27.726Z,3.10
2022-10-16T17:52:03.153Z,3.67
2022-10-16T17:54:36.544Z,4.83
2022-10-16T17:57:09.969Z,2.87
2022-10-16T17:59:43.561Z,3.85
2022-10-16T18:02:17.296Z,4.00
2022-10-16T18:04:52.248Z,3.35
2022-10-16T18:07:25.794Z,3.47
2022-10-16T18:10:17.510Z,4.37
2022-10-16T18:12:34.917Z,3.77
2022-10-16T18:15:11.160Z,3.52
2022-10-16T18:17:44.534Z,4.20
2022-10-16T18:20:18.238Z,4.65
2022-10-16T18:22:54.517Z,3.62
2022-10-16T18:25:27.830Z,4.55
2022-10-16T18:28:01.606Z,4.10
2022-10-16T18:30:35.554Z,3.45
2022-10-16T18:33:09.367Z,3.27
2022-10-16T18:35:43.786Z,2.55
2022-10-16T18:38:17.545Z,3.75
2022-10-16T18:40:51.473Z,3.75
2022-10-16T18:43:25.211Z,6.30
2022-10-16T18:46:00.109Z,4.12
2022-10-16T18:48:34.439Z,3.90
2022-10-16T18:51:15.909Z,3.58
2022-10-16T18:53:50.991Z,2.80
2022-10-16T18:56:25.355Z,3.22
2022-10-16T18:59:00.200Z,3.80
2022-10-16T19:01:35.821Z,4.35
2022-10-16T19:04:12.827Z,4.10
2022-10-16T19:06:51.711Z,3.40
2022-10-16T19:09:28.743Z,3.50
2022-10-16T19:12:06.659Z,3.80
2022-10-16T19:14:41.282Z,4.03
2022-10-16T19:17:32.562Z,4.20
2022-10-16T19:20:09.595Z,3.77
2022-10-16T19:23:00.668Z,3.23
2022-10-16T19:25:36.672Z,3.98
2022-10-16T19:28:11.086Z,4.08
2022-10-16T19:30:46.407Z,2.95
2022-10-16T19:33:27.981Z,2.90
2022-10-16T19:36:11.709Z,4.15
2022-10-16T19:38:57.379Z,3.65
2022-10-16T19:41:38.988Z,3.27
2022-10-16T19:44:16.431Z,3.50
2022-10-16T19:47:08.724Z,2.30
2022-10-16T19:49:42.391Z,3.77
2022-10-16T19:52:18.160Z,2.92
2022-10-16T19:55:00.898Z,3.67
2022-10-16T20:00:18.895Z,4.12
2022-10-16T20:02:52.087Z,3.83
2022-10-16T20:05:26.046Z,2.67
2022-10-16T20:08:26.191Z,3.77
2022-10-16T20:11:00.104Z,3.17
2022-10-16T20:13:41.365Z,4.12
2022-10-16T20:16:13.975Z,3.45
2022-10-16T20:18:51.024Z,3.35
2022-10-16T20:21:26.698Z,5.00
2022-10-16T20:24:05.895Z,3.08
2022-10-16T20:26:41.038Z,3.80
2022-10-16T20:29:14.875Z,3.70
2022-10-16T20:31:48.551Z,4.55
2022-10-16T20:37:15.890Z,3.20
2022-10-16T20:39:49.498Z,3.12
2022-10-16T20:42:23.042Z,3.45
2022-10-16T20:44:57.069Z,3.15
2022-10-16T20:47:30.712Z,3.30
2022-10-16T20:50:04.370Z,3.90
2022-10-16T20:52:38.275Z,3.75
2022-10-16T20:55:12.570Z,4.12
2022-10-16T20:57:45.961Z,3.20
2022-10-16T21:00:20.060Z,3.30
2022-10-16T21:02:54.406Z,3.60
2022-10-16T21:05:30.089Z,3.22
2022-10-16T21:08:03.894Z,3.65
2022-10-16T21:10:37.535Z,3.80
2022-10-16T21:13:10.888Z,3.95
2022-10-16T21:15:44.610Z,3.87
2022-10-16T21:18:18.097Z,3.15
2022-10-16T21:20:51.473Z,3.90
2022-10-16T21:23:25.026Z,4.55
2022-10-16T21:25:58.627Z,3.87
2022-10-16T21:28:33.814Z,3.47
2022-10-16T21:31:15.517Z,3.65
2022-10-16T21:33:49.805Z,3.35
2022-10-16T21:36:25.335Z,3.58
2022-10-16T21:39:00.424Z,3.72
2022-10-16T21:41:34.522Z,3.05
2022-10-16T21:44:08.908Z,2.52
2022-10-16T21:46:44.619Z,4.20
2022-10-16T21:49:20.217Z,4.28
2022-10-16T21:51:54.302Z,4.03
2022-10-16T21:54:27.845Z,4.72
2022-10-16T21:57:01.352Z,3.98
2022-10-16T21:59:35.143Z,3.33
2022-10-16T22:02:08.782Z,4.10
2022-10-16T22:04:42.296Z,3.60
2022-10-16T22:07:15.790Z,4.25
2022-10-16T22:09:49.187Z,4.12
2022-10-16T22:12:22.700Z,4.70
2022-10-16T22:14:56.296Z,3.58
2022-10-16T22:17:29.885Z,3.55
2022-10-16T22:20:03.595Z,4.33
2022-10-16T22:22:36.280Z,4.30
2022-10-16T22:25:11.059Z,4.72
2022-10-16T22:27:44.588Z,4.30
2022-10-16T22:30:18.142Z,4.08
2022-10-16T22:32:51.616Z,4.03
2022-10-16T22:35:25.162Z,4.12
2022-10-16T22:37:58.981Z,4.17
2022-10-16T22:40:33.870Z,5.10
2022-10-16T22:43:08.258Z,3.25
2022-10-16T22:45:41.789Z,4.65
2022-10-16T22:48:15.723Z,3.90
2022-10-16T22:50:50.752Z,4.05
2022-10-16T22:53:24.404Z,4.53
2022-10-16T22:55:58.193Z,4.53
2022-10-16T22:58:32.162Z,3.87
2022-10-16T23:01:07.017Z,5.35
2022-10-16T23:03:40.341Z,4.50
2022-10-16T23:06:14.211Z,4.90
2022-10-16T23:08:49.419Z,4.80
2022-10-16T23:11:23.244Z,4.67
2022-10-16T23:13:57.262Z,5.05
2022-10-16T23:16:31.258Z,4.83
2022-10-16T23:19:04.510Z,4.62
2022-10-16T23:21:38.263Z,3.95
2022-10-16T23:24:11.508Z,4.95
2022-10-16T23:26:44.831Z,4.10
2022-10-16T23:29:18.483Z,4.40
2022-10-16T23:31:52.232Z,4.40
2022-10-16T23:34:26.308Z,4.47
2022-10-16T23:36:59.537Z,4.47
2022-10-16T23:39:33.700Z,5.00
2022-10-16T23:42:07.440Z,3.87
2022-10-16T23:44:41.151Z,3.72
2022-10-16T23:47:14.581Z,3.80
2022-10-16T23:49:47.834Z,3.30
2022-10-16T23:52:21.224Z,4.40
2022-10-16T23:54:54.570Z,3.98
2022-10-16T23:57:28.457Z,4.20
